Ringtown, Pennsylvania
Current Conditions -  °F | °C
As of 12:15 AM on Saturday 29 Nov 2014 (Local Time) from KHZL Reporting Station
Scattered Clouds Scattered Clouds  
Wind Chill: -6°   Ceiling: Unl
Heat Index: -6°   Visibility: 10mi
Dew Point: -10°   Wind: 0mph
Humidity: 74%   Direction: NA
Pressure: 30.2"   Gusts: NA
Location:  40.86°N, 76.23°W
Report Text: KHZL 290515Z AUTO 00000KT 10SM SCT095 SCT120 M06/M10 A3020 RMK AO2
Loading
Personal Weather Stations






























Interactive Weather Map New forecast layout! Learn more

10-Day Weather Forecast

Advertisements
Track Severe Weather on mobile